createdAt,value
2022-11-20T00:00:18.785Z,54.43
2022-11-20T00:02:45.052Z,54.07
2022-11-20T00:05:11.346Z,54.39
2022-11-20T00:07:37.650Z,54.53
2022-11-20T00:10:03.950Z,54.13
2022-11-20T00:12:30.193Z,53.76
2022-11-20T00:14:56.526Z,53.96
2022-11-20T00:17:22.764Z,53.90
2022-11-20T00:19:49.017Z,53.19
2022-11-20T00:22:15.357Z,53.29
2022-11-20T00:24:43.133Z,52.70
2022-11-20T00:27:09.613Z,52.49
2022-11-20T00:29:35.897Z,52.72
2022-11-20T00:32:02.137Z,52.65
2022-11-20T00:34:28.365Z,52.58
2022-11-20T00:36:54.629Z,52.25
2022-11-20T00:39:21.118Z,51.67
2022-11-20T00:41:47.511Z,52.01
2022-11-20T00:44:13.755Z,52.31
2022-11-20T00:46:40.018Z,52.07
2022-11-20T00:49:06.308Z,52.17
2022-11-20T00:51:32.537Z,52.24
2022-11-20T00:53:58.817Z,51.90
2022-11-20T00:56:25.095Z,51.67
2022-11-20T00:58:51.351Z,52.26
2022-11-20T01:01:17.897Z,52.52
2022-11-20T01:03:44.176Z,52.46
2022-11-20T01:06:10.417Z,52.33
2022-11-20T01:08:36.668Z,52.52
2022-11-20T01:11:02.925Z,52.58
2022-11-20T01:13:29.174Z,52.55
2022-11-20T01:15:55.533Z,52.96
2022-11-20T01:18:21.773Z,52.38
2022-11-20T01:20:48.025Z,52.72
2022-11-20T01:23:14.269Z,52.38
2022-11-20T01:25:40.517Z,52.32
2022-11-20T01:28:06.776Z,52.82
2022-11-20T01:30:33.023Z,52.61
2022-11-20T01:32:59.300Z,52.81
2022-11-20T01:35:25.566Z,52.78
2022-11-20T01:37:51.812Z,53.30
2022-11-20T01:40:18.061Z,52.77
2022-11-20T01:42:44.312Z,52.88
2022-11-20T01:45:10.566Z,52.69
2022-11-20T01:47:36.795Z,52.68
2022-11-20T01:50:03.061Z,53.21
2022-11-20T01:52:29.336Z,52.61
2022-11-20T01:54:55.595Z,53.12
2022-11-20T01:57:21.841Z,52.81
2022-11-20T01:59:48.116Z,53.42
2022-11-20T02:02:14.392Z,52.97
2022-11-20T02:04:40.644Z,53.19
2022-11-20T02:07:06.926Z,52.87
2022-11-20T02:09:33.189Z,53.04
2022-11-20T02:11:59.445Z,52.97
2022-11-20T02:14:25.700Z,53.02
2022-11-20T02:16:51.941Z,52.85
2022-11-20T02:19:18.512Z,52.52
2022-11-20T02:21:44.929Z,52.58
2022-11-20T02:24:11.192Z,53.19
2022-11-20T02:26:37.530Z,52.85
2022-11-20T02:29:03.765Z,53.02
2022-11-20T02:31:30.016Z,53.50
2022-11-20T02:33:56.306Z,53.98
2022-11-20T02:36:22.553Z,53.40
2022-11-20T02:38:48.814Z,53.62
2022-11-20T02:41:15.067Z,53.89
2022-11-20T02:43:41.321Z,53.52
2022-11-20T02:46:07.577Z,53.92
2022-11-20T02:48:34.190Z,53.77
2022-11-20T02:51:00.489Z,53.53
2022-11-20T02:53:26.727Z,53.98
2022-11-20T02:55:52.959Z,54.39
2022-11-20T02:58:19.215Z,54.42
2022-11-20T03:00:45.443Z,54.48
2022-11-20T03:03:11.673Z,53.99
2022-11-20T03:05:37.925Z,54.21
2022-11-20T03:08:04.169Z,54.01
2022-11-20T03:10:30.408Z,54.20
2022-11-20T03:12:56.670Z,53.95
2022-11-20T03:15:22.937Z,54.52
2022-11-20T03:17:49.192Z,54.43
2022-11-20T03:20:15.426Z,54.59
2022-11-20T03:22:41.681Z,53.35
2022-11-20T03:25:07.953Z,53.09
2022-11-20T03:27:34.201Z,53.71
2022-11-20T03:30:00.475Z,53.39
2022-11-20T03:32:26.737Z,53.68
2022-11-20T03:34:52.993Z,53.39
2022-11-20T03:37:19.250Z,53.53
2022-11-20T03:39:45.503Z,53.26
2022-11-20T03:42:11.759Z,53.10
2022-11-20T03:44:37.993Z,53.58
2022-11-20T03:47:04.253Z,54.03
2022-11-20T03:49:30.512Z,53.87
2022-11-20T03:51:56.791Z,54.11
2022-11-20T03:54:23.040Z,54.19
2022-11-20T03:56:49.354Z,54.51
2022-11-20T03:59:15.614Z,54.30
2022-11-20T04:01:44.278Z,54.35
2022-11-20T04:04:13.099Z,53.81
2022-11-20T04:06:39.332Z,53.86
2022-11-20T04:09:05.572Z,53.75
2022-11-20T04:11:31.833Z,53.94
2022-11-20T04:13:58.069Z,54.02
2022-11-20T04:16:24.317Z,53.68
2022-11-20T04:18:50.569Z,54.10
2022-11-20T04:21:16.802Z,54.63
2022-11-20T04:23:43.041Z,54.08
2022-11-20T04:26:09.285Z,54.73
2022-11-20T04:28:35.535Z,54.60
2022-11-20T04:31:01.782Z,55.03
2022-11-20T04:33:32.689Z,54.77
2022-11-20T04:36:00.206Z,55.33
2022-11-20T04:38:26.439Z,55.53
2022-11-20T04:40:52.704Z,55.81
2022-11-20T04:43:18.941Z,55.69
2022-11-20T04:45:45.196Z,55.62
2022-11-20T04:48:11.457Z,55.59
2022-11-20T04:50:37.710Z,55.60
2022-11-20T04:53:03.945Z,55.60
2022-11-20T04:55:30.192Z,55.47
2022-11-20T04:57:56.422Z,55.73
2022-11-20T05:00:22.666Z,55.77
2022-11-20T05:02:49.171Z,55.98
2022-11-20T05:05:15.408Z,55.39
2022-11-20T05:07:41.727Z,55.82
2022-11-20T05:10:08.069Z,55.85
2022-11-20T05:12:34.324Z,56.55
2022-11-20T05:15:00.577Z,56.65
2022-11-20T05:17:26.921Z,57.39
2022-11-20T05:19:53.371Z,57.58
2022-11-20T05:22:19.653Z,56.93
2022-11-20T05:24:45.916Z,56.72
2022-11-20T05:27:12.178Z,56.90
2022-11-20T05:29:39.460Z,56.76
2022-11-20T05:32:05.694Z,56.40
2022-11-20T05:34:31.925Z,55.74
2022-11-20T05:36:58.163Z,55.65
2022-11-20T05:39:24.534Z,55.43
2022-11-20T05:41:50.830Z,55.27
2022-11-20T05:44:17.101Z,55.33
2022-11-20T05:46:43.353Z,55.68
2022-11-20T05:49:09.608Z,55.66
2022-11-20T05:51:35.838Z,56.16
2022-11-20T05:54:02.119Z,56.36
2022-11-20T05:56:28.367Z,56.38
2022-11-20T05:58:54.608Z,56.46
2022-11-20T06:01:20.857Z,56.42
2022-11-20T06:03:47.113Z,57.18
2022-11-20T06:06:13.360Z,57.27
2022-11-20T06:08:39.617Z,56.61
2022-11-20T06:11:05.875Z,56.85
2022-11-20T06:13:32.136Z,57.04
2022-11-20T06:15:58.405Z,57.25
2022-11-20T06:18:24.654Z,57.55
2022-11-20T06:20:50.906Z,57.92
2022-11-20T06:23:17.169Z,59.03
2022-11-20T06:25:43.411Z,58.53
2022-11-20T06:28:09.648Z,58.30
2022-11-20T06:30:35.882Z,58.92
2022-11-20T06:33:02.145Z,58.85
2022-11-20T06:35:28.396Z,58.15
2022-11-20T06:37:54.657Z,58.21
2022-11-20T06:40:20.908Z,58.12
2022-11-20T06:42:47.147Z,57.85
2022-11-20T06:45:13.410Z,58.01
2022-11-20T06:47:39.641Z,58.32
2022-11-20T06:50:05.875Z,58.15
2022-11-20T06:52:32.132Z,58.33
2022-11-20T06:54:58.366Z,57.70
2022-11-20T06:57:24.645Z,57.96
2022-11-20T06:59:50.881Z,57.14
2022-11-20T07:02:17.129Z,57.51
2022-11-20T07:04:43.392Z,57.06
2022-11-20T07:07:09.651Z,57.03
2022-11-20T07:09:35.908Z,57.83
2022-11-20T07:12:02.143Z,57.65
2022-11-20T07:14:28.385Z,57.43
2022-11-20T07:16:54.635Z,57.27
2022-11-20T07:19:21.197Z,56.97
2022-11-20T07:21:47.600Z,56.95
2022-11-20T07:24:13.852Z,56.51
2022-11-20T07:26:40.090Z,56.41
2022-11-20T07:29:06.340Z,56.74
2022-11-20T07:31:32.601Z,55.93
2022-11-20T07:33:58.869Z,55.97
2022-11-20T07:36:25.109Z,56.11
2022-11-20T07:38:51.365Z,55.15
2022-11-20T07:41:17.624Z,55.52
2022-11-20T07:43:43.878Z,54.75
2022-11-20T07:46:10.123Z,55.19
2022-11-20T07:48:36.368Z,54.46
2022-11-20T07:51:02.612Z,54.72
2022-11-20T07:53:28.863Z,54.38
2022-11-20T07:55:55.131Z,54.48
2022-11-20T07:58:21.392Z,54.66
2022-11-20T08:00:47.702Z,54.06
2022-11-20T08:03:14.042Z,53.48
2022-11-20T08:05:40.323Z,54.32
2022-11-20T08:08:06.561Z,54.07
2022-11-20T08:10:32.795Z,54.76
2022-11-20T08:12:59.036Z,55.15
2022-11-20T08:15:25.297Z,55.28
2022-11-20T08:18:15.506Z,56.55
2022-11-20T08:20:37.775Z,57.23
2022-11-20T08:23:04.030Z,58.42
2022-11-20T08:25:30.258Z,58.28
2022-11-20T08:28:00.174Z,57.38
2022-11-20T08:30:26.929Z,57.29
2022-11-20T08:32:53.180Z,56.59
2022-11-20T08:35:19.430Z,55.99
2022-11-20T08:37:45.670Z,56.29
2022-11-20T08:40:14.757Z,56.09
2022-11-20T08:42:44.671Z,55.57
2022-11-20T08:45:10.946Z,55.87
2022-11-20T08:47:37.182Z,55.77
2022-11-20T08:50:03.511Z,56.44
2022-11-20T08:52:29.773Z,57.20
2022-11-20T08:54:56.041Z,57.44
2022-11-20T08:57:22.281Z,56.80
2022-11-20T09:02:34.734Z,56.79
2022-11-20T09:05:01.017Z,56.72
2022-11-20T09:07:27.341Z,56.92
2022-11-20T09:10:16.603Z,56.36
2022-11-20T09:12:39.889Z,55.85
2022-11-20T09:15:06.139Z,56.30
2022-11-20T09:17:32.418Z,56.01
2022-11-20T09:19:58.697Z,56.15
2022-11-20T09:22:24.974Z,56.13
2022-11-20T09:24:51.227Z,55.19
2022-11-20T09:27:17.479Z,54.83
2022-11-20T09:29:43.736Z,54.65
2022-11-20T09:32:09.983Z,53.47
2022-11-20T09:34:36.249Z,53.97
2022-11-20T09:37:06.164Z,53.08
2022-11-20T09:39:33.958Z,53.02
2022-11-20T09:42:00.205Z,52.67
2022-11-20T09:44:26.438Z,53.43
2022-11-20T09:46:52.729Z,53.12
2022-11-20T09:49:19.426Z,53.23
2022-11-20T09:51:46.136Z,52.74
2022-11-20T09:54:12.384Z,52.52
2022-11-20T09:56:38.663Z,52.60
2022-11-20T09:59:04.945Z,52.45
2022-11-20T10:01:31.286Z,52.05
2022-11-20T10:03:57.601Z,51.57
2022-11-20T10:06:23.860Z,52.53
2022-11-20T10:08:50.109Z,52.26
2022-11-20T10:11:16.354Z,52.79
2022-11-20T10:13:42.614Z,51.94
2022-11-20T10:16:08.872Z,53.22
2022-11-20T10:18:35.118Z,53.86
2022-11-20T10:21:01.457Z,54.67
2022-11-20T10:23:27.710Z,53.75
2022-11-20T10:25:53.960Z,53.12
2022-11-20T10:28:20.224Z,52.92
2022-11-20T10:30:46.505Z,52.22
2022-11-20T10:33:12.747Z,52.32
2022-11-20T10:35:38.981Z,52.06
2022-11-20T10:38:05.245Z,51.77
2022-11-20T10:40:31.505Z,51.48
2022-11-20T10:42:57.795Z,51.61
2022-11-20T10:45:24.042Z,51.69
2022-11-20T10:47:50.301Z,51.30
2022-11-20T10:50:21.852Z,50.69
2022-11-20T10:52:49.065Z,51.58
2022-11-20T10:55:15.310Z,51.28
2022-11-20T10:57:41.562Z,51.99
2022-11-20T11:00:07.855Z,51.21
2022-11-20T11:02:34.109Z,50.87
2022-11-20T11:05:00.351Z,50.56
2022-11-20T11:07:26.636Z,50.45
2022-11-20T11:09:52.937Z,49.88
2022-11-20T11:12:19.282Z,50.61
2022-11-20T11:14:45.571Z,50.07
2022-11-20T11:17:11.841Z,50.61
2022-11-20T11:19:38.128Z,50.44
2022-11-20T11:22:04.365Z,49.22
2022-11-20T11:24:45.986Z,48.90
2022-11-20T11:27:15.426Z,47.91
2022-11-20T11:29:43.649Z,48.18
2022-11-20T11:32:09.883Z,47.22
2022-11-20T11:34:36.139Z,47.05
2022-11-20T11:37:02.421Z,45.55
2022-11-20T11:39:28.717Z,47.41
2022-11-20T11:41:54.969Z,46.91
2022-11-20T11:44:21.202Z,45.26
2022-11-20T11:46:50.422Z,45.34
2022-11-20T11:49:16.654Z,44.74
2022-11-20T11:51:42.890Z,45.24
2022-11-20T11:54:09.136Z,44.28
2022-11-20T11:56:35.427Z,44.71
2022-11-20T11:59:01.663Z,44.19
2022-11-20T12:01:27.932Z,44.68
2022-11-20T12:03:54.334Z,44.46
2022-11-20T12:06:20.590Z,44.62
2022-11-20T12:08:46.862Z,43.51
2022-11-20T12:11:13.120Z,43.87
2022-11-20T12:13:39.364Z,43.57
2022-11-20T12:16:05.631Z,42.12
2022-11-20T12:18:31.892Z,42.85
2022-11-20T12:20:58.132Z,42.20
2022-11-20T12:23:24.413Z,41.45
2022-11-20T12:25:50.661Z,40.46
2022-11-20T12:28:16.891Z,40.88
2022-11-20T12:30:43.149Z,40.05
2022-11-20T12:33:09.409Z,40.18
2022-11-20T12:35:35.718Z,38.55
2022-11-20T12:38:02.002Z,41.35
2022-11-20T12:40:28.358Z,42.63
2022-11-20T12:42:54.614Z,41.56
2022-11-20T12:45:20.871Z,41.85
2022-11-20T12:47:47.120Z,41.00
2022-11-20T12:50:13.377Z,41.47
2022-11-20T12:52:39.626Z,40.94
2022-11-20T12:55:05.903Z,42.21
2022-11-20T12:57:32.134Z,40.36
2022-11-20T12:59:58.395Z,40.36
2022-11-20T13:02:24.637Z,41.77
2022-11-20T13:04:50.870Z,41.32
2022-11-20T13:07:17.187Z,42.34
2022-11-20T13:09:43.436Z,40.98
2022-11-20T13:12:09.683Z,41.26
2022-11-20T13:14:35.944Z,41.37
2022-11-20T13:17:06.094Z,40.39
2022-11-20T13:19:32.689Z,40.80
2022-11-20T13:21:59.039Z,41.70
2022-11-20T13:24:25.600Z,41.06
2022-11-20T13:26:52.045Z,41.94
2022-11-20T13:29:18.286Z,42.85
2022-11-20T13:31:44.524Z,42.33
2022-11-20T13:34:10.858Z,41.55
2022-11-20T13:36:37.088Z,41.15
2022-11-20T13:39:03.374Z,40.32
2022-11-20T13:41:29.629Z,39.97
2022-11-20T13:43:55.875Z,40.32
2022-11-20T13:46:22.141Z,40.41
2022-11-20T13:48:48.400Z,40.09
2022-11-20T13:51:14.634Z,39.84
2022-11-20T13:53:40.898Z,39.02
2022-11-20T13:56:07.223Z,39.29
2022-11-20T13:58:33.549Z,40.35
2022-11-20T14:00:59.826Z,40.79
2022-11-20T14:03:51.129Z,39.67
2022-11-20T14:06:12.341Z,38.69
2022-11-20T14:08:38.593Z,38.99
2022-11-20T14:11:04.888Z,39.74
2022-11-20T14:13:31.136Z,38.94
2022-11-20T14:15:57.389Z,39.12
2022-11-20T14:18:23.636Z,39.51
2022-11-20T14:20:49.876Z,39.71
2022-11-20T14:23:16.107Z,39.27
2022-11-20T14:25:42.352Z,40.84
2022-11-20T14:28:08.641Z,41.03
2022-11-20T14:30:34.902Z,40.88
2022-11-20T14:33:01.149Z,40.57
2022-11-20T14:35:27.437Z,40.76
2022-11-20T14:37:53.731Z,40.79
2022-11-20T14:40:19.970Z,41.64
2022-11-20T14:42:46.219Z,41.57
2022-11-20T14:45:12.498Z,41.62
2022-11-20T14:47:38.778Z,41.51
2022-11-20T14:50:09.817Z,42.43
2022-11-20T14:52:36.388Z,42.33
2022-11-20T14:55:02.659Z,42.63
2022-11-20T14:57:28.928Z,42.26
2022-11-20T14:59:55.175Z,42.87
2022-11-20T15:02:21.474Z,43.24
2022-11-20T15:04:47.715Z,43.70
2022-11-20T15:07:14.034Z,43.50
2022-11-20T15:09:40.359Z,43.71
2022-11-20T15:12:06.620Z,43.32
2022-11-20T15:14:32.873Z,43.68
2022-11-20T15:16:59.130Z,42.99
2022-11-20T15:19:25.387Z,43.32
2022-11-20T15:21:51.613Z,43.63
2022-11-20T15:24:17.845Z,43.57
2022-11-20T15:26:44.105Z,42.50
2022-11-20T15:29:10.354Z,42.48
2022-11-20T15:31:36.610Z,42.59
2022-11-20T15:34:02.855Z,43.08
2022-11-20T15:36:29.099Z,43.68
2022-11-20T15:38:55.366Z,43.69
2022-11-20T15:41:21.752Z,43.28
2022-11-20T15:43:48.061Z,43.74
2022-11-20T15:46:14.316Z,43.54
2022-11-20T15:48:46.186Z,43.42
2022-11-20T15:51:14.193Z,43.87
2022-11-20T15:53:40.544Z,44.14
2022-11-20T15:56:06.853Z,44.41
2022-11-20T15:58:33.105Z,44.17
2022-11-20T16:00:59.868Z,44.30
2022-11-20T16:03:26.217Z,45.44
2022-11-20T16:05:52.494Z,45.54
2022-11-20T16:08:18.747Z,45.72
2022-11-20T16:10:45.000Z,45.77
2022-11-20T16:13:11.288Z,46.22
2022-11-20T16:15:37.557Z,46.16
2022-11-20T16:18:03.890Z,46.18
2022-11-20T16:20:30.125Z,46.64
2022-11-20T16:22:56.442Z,45.89
2022-11-20T16:25:22.702Z,46.50
2022-11-20T16:27:49.005Z,46.27
2022-11-20T16:30:15.306Z,46.88
2022-11-20T16:32:41.595Z,46.96
2022-11-20T16:35:08.039Z,47.21
2022-11-20T16:37:34.292Z,46.72
2022-11-20T16:40:00.562Z,47.24
2022-11-20T16:42:26.841Z,47.26
2022-11-20T16:44:53.206Z,47.81
2022-11-20T16:47:19.695Z,47.30
2022-11-20T16:49:45.977Z,47.51
2022-11-20T16:52:12.217Z,47.78
2022-11-20T16:54:38.478Z,47.72
2022-11-20T16:57:04.724Z,48.02
2022-11-20T16:59:30.976Z,47.88
2022-11-20T17:01:57.317Z,48.29
2022-11-20T17:04:23.803Z,48.73
2022-11-20T17:06:50.237Z,48.52
2022-11-20T17:09:16.490Z,48.52
2022-11-20T17:11:42.757Z,49.14
2022-11-20T17:14:09.120Z,48.74
2022-11-20T17:16:35.488Z,49.24
2022-11-20T17:19:03.547Z,49.09
2022-11-20T17:21:30.044Z,49.24
2022-11-20T17:23:56.343Z,50.45
2022-11-20T17:26:22.812Z,49.87
2022-11-20T17:28:49.130Z,50.27
2022-11-20T17:31:15.386Z,51.22
2022-11-20T17:33:41.666Z,50.78
2022-11-20T17:36:07.944Z,50.83
2022-11-20T17:38:34.190Z,51.42
2022-11-20T17:41:00.497Z,51.03
2022-11-20T17:43:30.341Z,50.19
2022-11-20T17:45:59.216Z,49.85
2022-11-20T17:48:25.488Z,50.12
2022-11-20T17:50:51.758Z,49.74
2022-11-20T17:53:18.073Z,50.81
2022-11-20T17:55:44.308Z,49.61
2022-11-20T17:58:10.547Z,47.70
2022-11-20T18:00:36.815Z,47.19
2022-11-20T18:03:03.058Z,46.23
2022-11-20T18:05:29.329Z,45.92
2022-11-20T18:07:55.675Z,48.13
2022-11-20T18:10:21.943Z,48.75
2022-11-20T18:12:48.227Z,47.97
2022-11-20T18:15:14.487Z,48.68
2022-11-20T18:17:40.857Z,50.18
2022-11-20T18:20:28.030Z,49.75
2022-11-20T18:22:53.353Z,50.04
2022-11-20T18:25:19.608Z,49.61
2022-11-20T18:27:45.872Z,49.67
2022-11-20T18:30:12.098Z,49.81
2022-11-20T18:32:38.341Z,49.56
2022-11-20T18:35:04.638Z,49.58
2022-11-20T18:37:30.893Z,50.22
2022-11-20T18:39:57.172Z,50.62
2022-11-20T18:42:23.465Z,49.35
2022-11-20T18:44:49.742Z,49.06
2022-11-20T18:47:15.999Z,49.69
2022-11-20T18:49:42.234Z,50.49
2022-11-20T18:52:08.483Z,51.30
2022-11-20T18:54:34.733Z,51.58
2022-11-20T18:57:00.976Z,51.50
2022-11-20T18:59:27.787Z,51.38
2022-11-20T19:01:54.496Z,51.79
2022-11-20T19:04:20.773Z,51.36
2022-11-20T19:06:47.031Z,51.72
2022-11-20T19:09:13.315Z,52.75
2022-11-20T19:11:39.588Z,53.63
2022-11-20T19:14:05.819Z,53.96
2022-11-20T19:16:32.099Z,54.84
2022-11-20T19:19:03.043Z,55.46
2022-11-20T19:21:29.738Z,55.24
2022-11-20T19:23:55.993Z,56.20
2022-11-20T19:26:22.249Z,56.24
2022-11-20T19:28:48.544Z,57.01
2022-11-20T19:31:14.879Z,56.91
2022-11-20T19:33:41.196Z,56.22
2022-11-20T19:36:07.460Z,56.51
2022-11-20T19:38:33.735Z,56.06
2022-11-20T19:41:00.002Z,55.91
2022-11-20T19:43:26.408Z,56.63
2022-11-20T19:45:52.778Z,56.98
2022-11-20T19:48:19.104Z,57.09
2022-11-20T19:50:45.365Z,57.59
2022-11-20T19:53:11.605Z,57.38
2022-11-20T19:55:37.957Z,58.36
2022-11-20T19:58:04.637Z,58.69
2022-11-20T20:00:32.806Z,57.83
2022-11-20T20:02:59.295Z,58.23
2022-11-20T20:05:25.580Z,58.48
2022-11-20T20:07:51.820Z,58.62
2022-11-20T20:10:18.057Z,58.42
2022-11-20T20:12:44.324Z,58.31
2022-11-20T20:15:10.567Z,58.47
2022-11-20T20:17:36.821Z,59.12
2022-11-20T20:20:03.140Z,59.81
2022-11-20T20:22:29.496Z,59.96
2022-11-20T20:24:55.746Z,59.78
2022-11-20T20:27:21.998Z,60.01
2022-11-20T20:29:48.261Z,60.89
2022-11-20T20:32:14.514Z,60.60
2022-11-20T20:34:40.772Z,61.30
2022-11-20T20:37:07.063Z,61.42
2022-11-20T20:39:33.379Z,60.61
2022-11-20T20:41:59.690Z,61.16
2022-11-20T20:44:25.991Z,61.24
2022-11-20T20:46:52.278Z,61.57
2022-11-20T20:49:18.546Z,61.93
2022-11-20T20:51:45.012Z,62.34
2022-11-20T20:54:11.298Z,62.15
2022-11-20T20:56:38.551Z,62.99
2022-11-20T20:59:04.910Z,61.86
2022-11-20T21:01:31.250Z,62.98
2022-11-20T21:03:57.685Z,62.16
2022-11-20T21:06:24.015Z,61.90
2022-11-20T21:08:50.278Z,62.18
2022-11-20T21:11:16.507Z,62.06
2022-11-20T21:13:42.798Z,61.83
2022-11-20T21:16:09.171Z,61.78
2022-11-20T21:18:35.464Z,62.25
2022-11-20T21:21:01.751Z,62.11
2022-11-20T21:23:27.997Z,62.53
2022-11-20T21:25:54.387Z,62.53
2022-11-20T21:28:20.629Z,62.52
2022-11-20T21:30:46.886Z,63.26
2022-11-20T21:33:13.123Z,62.50
2022-11-20T21:35:39.358Z,63.80
2022-11-20T21:38:05.620Z,63.71
2022-11-20T21:40:31.894Z,63.45
2022-11-20T21:42:58.128Z,62.93
2022-11-20T21:45:24.417Z,62.98
2022-11-20T21:47:50.693Z,62.97
2022-11-20T21:50:16.950Z,62.92
2022-11-20T21:52:43.189Z,62.73
2022-11-20T21:55:09.443Z,62.74
2022-11-20T21:57:35.718Z,62.99
2022-11-20T22:00:01.999Z,62.39
2022-11-20T22:02:28.256Z,62.37
2022-11-20T22:04:54.509Z,62.32
2022-11-20T22:07:20.790Z,62.54
2022-11-20T22:09:47.098Z,63.10
2022-11-20T22:12:13.345Z,62.96
2022-11-20T22:14:39.617Z,62.39
2022-11-20T22:17:05.868Z,63.11
2022-11-20T22:19:32.216Z,63.26
2022-11-20T22:21:58.473Z,63.17
2022-11-20T22:24:24.904Z,63.26
2022-11-20T22:26:51.354Z,63.22
2022-11-20T22:29:17.622Z,63.05
2022-11-20T22:31:43.872Z,63.24
2022-11-20T22:34:10.138Z,62.08
2022-11-20T22:36:36.377Z,62.43
2022-11-20T22:39:02.639Z,62.79
2022-11-20T22:41:28.905Z,62.82
2022-11-20T22:43:55.241Z,63.38
2022-11-20T22:46:21.492Z,62.98
2022-11-20T22:48:47.799Z,62.66
2022-11-20T22:51:14.061Z,62.23
2022-11-20T22:53:40.304Z,62.58
2022-11-20T22:56:06.560Z,62.71
2022-11-20T22:58:32.828Z,63.23
2022-11-20T23:00:59.086Z,62.88
2022-11-20T23:03:25.411Z,61.92
2022-11-20T23:05:51.730Z,62.00
2022-11-20T23:08:17.983Z,62.12
2022-11-20T23:10:44.229Z,61.74
2022-11-20T23:13:10.469Z,61.65
2022-11-20T23:15:36.716Z,61.94
2022-11-20T23:18:02.975Z,61.35
2022-11-20T23:20:29.224Z,62.27
2022-11-20T23:22:55.481Z,61.95
2022-11-20T23:25:21.725Z,61.55
2022-11-20T23:27:47.985Z,61.77
2022-11-20T23:30:14.241Z,61.69
2022-11-20T23:32:40.492Z,61.62
2022-11-20T23:35:06.777Z,61.39
2022-11-20T23:37:33.057Z,61.24
2022-11-20T23:39:59.440Z,60.93
2022-11-20T23:42:25.685Z,61.48
2022-11-20T23:44:51.958Z,61.26
2022-11-20T23:47:18.202Z,61.75
2022-11-20T23:49:44.438Z,62.09
2022-11-20T23:52:10.766Z,62.46
2022-11-20T23:54:37.027Z,61.92
2022-11-20T23:57:03.261Z,61.95
2022-11-20T23:59:29.502Z,62.07
